sensor_id;sensor_type;location;lat;lon;timestamp;P1;durP1;ratioP1;P2;durP2;ratioP2
37855;SDS011;23694;43.274;26.924;2023-04-06T00:01:39;11.37;;;9.03;;
37855;SDS011;23694;43.274;26.924;2023-04-06T00:04:05;10.17;;;8.60;;
37855;SDS011;23694;43.274;26.924;2023-04-06T00:06:32;12.57;;;9.77;;
37855;SDS011;23694;43.274;26.924;2023-04-06T00:08:59;13.43;;;9.73;;
37855;SDS011;23694;43.274;26.924;2023-04-06T00:11:26;10.40;;;8.97;;
37855;SDS011;23694;43.274;26.924;2023-04-06T00:13:52;11.50;;;9.60;;
37855;SDS011;23694;43.274;26.924;2023-04-06T00:16:19;10.93;;;9.33;;
37855;SDS011;23694;43.274;26.924;2023-04-06T00:18:45;11.10;;;9.27;;
37855;SDS011;23694;43.274;26.924;2023-04-06T00:21:12;13.73;;;10.03;;
37855;SDS011;23694;43.274;26.924;2023-04-06T00:23:39;12.10;;;10.10;;
37855;SDS011;23694;43.274;26.924;2023-04-06T00:26:06;13.03;;;10.37;;
37855;SDS011;23694;43.274;26.924;2023-04-06T00:28:33;11.73;;;9.67;;
37855;SDS011;23694;43.274;26.924;2023-04-06T00:31:00;13.43;;;10.27;;
37855;SDS011;23694;43.274;26.924;2023-04-06T00:33:26;11.67;;;9.50;;
37855;SDS011;23694;43.274;26.924;2023-04-06T00:35:52;12.13;;;9.73;;
37855;SDS011;23694;43.274;26.924;2023-04-06T00:38:18;13.17;;;11.10;;
37855;SDS011;23694;43.274;26.924;2023-04-06T00:40:44;11.90;;;9.90;;
37855;SDS011;23694;43.274;26.924;2023-04-06T00:43:11;13.33;;;10.83;;
37855;SDS011;23694;43.274;26.924;2023-04-06T00:45:37;11.63;;;9.73;;
37855;SDS011;23694;43.274;26.924;2023-04-06T00:48:05;13.77;;;10.23;;
37855;SDS011;23694;43.274;26.924;2023-04-06T00:50:31;13.07;;;10.57;;
37855;SDS011;23694;43.274;26.924;2023-04-06T00:53:01;13.60;;;10.20;;
37855;SDS011;23694;43.274;26.924;2023-04-06T00:55:27;13.07;;;10.50;;
37855;SDS011;23694;43.274;26.924;2023-04-06T00:57:54;13.30;;;11.17;;
37855;SDS011;23694;43.274;26.924;2023-04-06T01:00:22;12.60;;;10.27;;
37855;SDS011;23694;43.274;26.924;2023-04-06T01:02:49;13.37;;;11.03;;
37855;SDS011;23694;43.274;26.924;2023-04-06T01:05:16;13.10;;;11.07;;
37855;SDS011;23694;43.274;26.924;2023-04-06T01:07:42;12.83;;;11.47;;
37855;SDS011;23694;43.274;26.924;2023-04-06T01:10:08;14.57;;;11.23;;
37855;SDS011;23694;43.274;26.924;2023-04-06T01:12:35;13.27;;;11.23;;
37855;SDS011;23694;43.274;26.924;2023-04-06T01:15:03;15.70;;;12.17;;
37855;SDS011;23694;43.274;26.924;2023-04-06T01:17:29;14.67;;;11.87;;
37855;SDS011;23694;43.274;26.924;2023-04-06T01:19:55;14.70;;;12.03;;
37855;SDS011;23694;43.274;26.924;2023-04-06T01:22:22;16.30;;;12.97;;
37855;SDS011;23694;43.274;26.924;2023-04-06T01:24:49;14.47;;;11.70;;
37855;SDS011;23694;43.274;26.924;2023-04-06T01:27:15;16.07;;;12.33;;
37855;SDS011;23694;43.274;26.924;2023-04-06T01:29:42;13.90;;;11.83;;
37855;SDS011;23694;43.274;26.924;2023-04-06T01:32:08;15.13;;;12.23;;
37855;SDS011;23694;43.274;26.924;2023-04-06T01:34:35;17.27;;;13.43;;
37855;SDS011;23694;43.274;26.924;2023-04-06T01:37:01;15.80;;;12.77;;
37855;SDS011;23694;43.274;26.924;2023-04-06T01:39:27;15.90;;;13.23;;
37855;SDS011;23694;43.274;26.924;2023-04-06T01:41:53;15.67;;;13.10;;
37855;SDS011;23694;43.274;26.924;2023-04-06T01:44:19;16.47;;;14.03;;
37855;SDS011;23694;43.274;26.924;2023-04-06T01:46:45;15.03;;;12.87;;
37855;SDS011;23694;43.274;26.924;2023-04-06T01:49:12;15.90;;;13.23;;
37855;SDS011;23694;43.274;26.924;2023-04-06T01:51:38;15.03;;;13.17;;
37855;SDS011;23694;43.274;26.924;2023-04-06T01:54:05;15.87;;;13.17;;
37855;SDS011;23694;43.274;26.924;2023-04-06T01:56:31;17.27;;;12.77;;
37855;SDS011;23694;43.274;26.924;2023-04-06T01:58:57;15.67;;;12.67;;
37855;SDS011;23694;43.274;26.924;2023-04-06T02:01:23;17.20;;;14.03;;
37855;SDS011;23694;43.274;26.924;2023-04-06T02:03:49;16.90;;;13.93;;
37855;SDS011;23694;43.274;26.924;2023-04-06T02:06:15;15.73;;;13.70;;
37855;SDS011;23694;43.274;26.924;2023-04-06T02:08:41;15.33;;;13.23;;
37855;SDS011;23694;43.274;26.924;2023-04-06T02:11:07;16.33;;;13.10;;
37855;SDS011;23694;43.274;26.924;2023-04-06T02:13:33;16.07;;;13.57;;
37855;SDS011;23694;43.274;26.924;2023-04-06T02:15:59;18.63;;;13.43;;
37855;SDS011;23694;43.274;26.924;2023-04-06T02:18:29;14.37;;;12.60;;
37855;SDS011;23694;43.274;26.924;2023-04-06T02:20:56;16.03;;;12.63;;
37855;SDS011;23694;43.274;26.924;2023-04-06T02:23:22;15.57;;;13.00;;
37855;SDS011;23694;43.274;26.924;2023-04-06T02:25:48;16.57;;;12.90;;
37855;SDS011;23694;43.274;26.924;2023-04-06T02:28:14;15.83;;;13.30;;
37855;SDS011;23694;43.274;26.924;2023-04-06T02:30:41;16.87;;;12.63;;
37855;SDS011;23694;43.274;26.924;2023-04-06T02:33:07;15.10;;;12.43;;
37855;SDS011;23694;43.274;26.924;2023-04-06T02:35:33;13.97;;;12.00;;
37855;SDS011;23694;43.274;26.924;2023-04-06T02:37:59;17.20;;;13.27;;
37855;SDS011;23694;43.274;26.924;2023-04-06T02:40:25;15.30;;;12.43;;
37855;SDS011;23694;43.274;26.924;2023-04-06T02:42:51;15.07;;;12.57;;
37855;SDS011;23694;43.274;26.924;2023-04-06T02:45:17;15.63;;;13.20;;
37855;SDS011;23694;43.274;26.924;2023-04-06T02:47:43;14.23;;;12.47;;
37855;SDS011;23694;43.274;26.924;2023-04-06T02:50:09;16.80;;;13.57;;
37855;SDS011;23694;43.274;26.924;2023-04-06T02:52:35;16.00;;;13.70;;
37855;SDS011;23694;43.274;26.924;2023-04-06T02:55:01;16.97;;;13.63;;
37855;SDS011;23694;43.274;26.924;2023-04-06T02:57:27;15.80;;;12.80;;
37855;SDS011;23694;43.274;26.924;2023-04-06T02:59:53;16.13;;;13.53;;
37855;SDS011;23694;43.274;26.924;2023-04-06T03:02:20;15.90;;;13.37;;
37855;SDS011;23694;43.274;26.924;2023-04-06T03:04:46;13.90;;;12.40;;
37855;SDS011;23694;43.274;26.924;2023-04-06T03:07:13;15.50;;;12.73;;
37855;SDS011;23694;43.274;26.924;2023-04-06T03:09:39;15.37;;;12.40;;
37855;SDS011;23694;43.274;26.924;2023-04-06T03:12:05;13.60;;;12.00;;
37855;SDS011;23694;43.274;26.924;2023-04-06T03:14:31;14.70;;;12.07;;
37855;SDS011;23694;43.274;26.924;2023-04-06T03:16:57;15.07;;;12.80;;
37855;SDS011;23694;43.274;26.924;2023-04-06T03:19:23;15.33;;;12.70;;
37855;SDS011;23694;43.274;26.924;2023-04-06T03:21:49;16.40;;;13.03;;
37855;SDS011;23694;43.274;26.924;2023-04-06T03:24:15;18.13;;;13.63;;
37855;SDS011;23694;43.274;26.924;2023-04-06T03:26:41;14.17;;;12.13;;
37855;SDS011;23694;43.274;26.924;2023-04-06T03:29:07;18.27;;;12.67;;
37855;SDS011;23694;43.274;26.924;2023-04-06T03:31:33;17.23;;;13.20;;
37855;SDS011;23694;43.274;26.924;2023-04-06T03:34:00;17.67;;;14.03;;
37855;SDS011;23694;43.274;26.924;2023-04-06T03:36:26;16.60;;;12.87;;
37855;SDS011;23694;43.274;26.924;2023-04-06T03:38:52;26.07;;;18.70;;
37855;SDS011;23694;43.274;26.924;2023-04-06T03:41:19;38.20;;;28.63;;
37855;SDS011;23694;43.274;26.924;2023-04-06T03:43:45;31.80;;;23.83;;
37855;SDS011;23694;43.274;26.924;2023-04-06T03:46:11;23.33;;;18.30;;
37855;SDS011;23694;43.274;26.924;2023-04-06T03:48:37;25.43;;;19.23;;
37855;SDS011;23694;43.274;26.924;2023-04-06T03:51:03;26.13;;;19.93;;
37855;SDS011;23694;43.274;26.924;2023-04-06T03:53:30;15.73;;;12.67;;
37855;SDS011;23694;43.274;26.924;2023-04-06T03:55:56;16.03;;;12.67;;
37855;SDS011;23694;43.274;26.924;2023-04-06T03:58:22;21.37;;;17.33;;
37855;SDS011;23694;43.274;26.924;2023-04-06T04:00:48;36.30;;;25.20;;
37855;SDS011;23694;43.274;26.924;2023-04-06T04:03:14;21.20;;;15.40;;
37855;SDS011;23694;43.274;26.924;2023-04-06T04:05:40;22.80;;;16.33;;
37855;SDS011;23694;43.274;26.924;2023-04-06T04:08:06;16.90;;;13.50;;
37855;SDS011;23694;43.274;26.924;2023-04-06T04:10:32;18.20;;;13.93;;
37855;SDS011;23694;43.274;26.924;2023-04-06T04:12:58;14.70;;;12.10;;
37855;SDS011;23694;43.274;26.924;2023-04-06T04:15:24;16.07;;;12.63;;
37855;SDS011;23694;43.274;26.924;2023-04-06T04:17:50;18.07;;;13.47;;
37855;SDS011;23694;43.274;26.924;2023-04-06T04:20:16;19.70;;;13.90;;
37855;SDS011;23694;43.274;26.924;2023-04-06T04:22:42;15.97;;;12.47;;
37855;SDS011;23694;43.274;26.924;2023-04-06T04:25:09;16.83;;;12.17;;
37855;SDS011;23694;43.274;26.924;2023-04-06T04:27:35;15.53;;;12.27;;
37855;SDS011;23694;43.274;26.924;2023-04-06T04:30:01;15.73;;;11.83;;
37855;SDS011;23694;43.274;26.924;2023-04-06T04:32:28;16.43;;;12.83;;
37855;SDS011;23694;43.274;26.924;2023-04-06T04:34:54;16.20;;;12.23;;
37855;SDS011;23694;43.274;26.924;2023-04-06T04:37:20;14.67;;;11.73;;
37855;SDS011;23694;43.274;26.924;2023-04-06T04:39:46;17.93;;;12.77;;
37855;SDS011;23694;43.274;26.924;2023-04-06T04:42:12;15.90;;;12.33;;
37855;SDS011;23694;43.274;26.924;2023-04-06T04:44:39;18.23;;;12.60;;
37855;SDS011;23694;43.274;26.924;2023-04-06T04:47:05;16.97;;;12.57;;
37855;SDS011;23694;43.274;26.924;2023-04-06T04:49:31;17.77;;;12.33;;
37855;SDS011;23694;43.274;26.924;2023-04-06T04:51:57;14.50;;;12.50;;
37855;SDS011;23694;43.274;26.924;2023-04-06T04:54:23;23.67;;;13.53;;
37855;SDS011;23694;43.274;26.924;2023-04-06T04:56:49;18.37;;;12.73;;
37855;SDS011;23694;43.274;26.924;2023-04-06T04:59:15;16.20;;;11.87;;
37855;SDS011;23694;43.274;26.924;2023-04-06T05:01:42;18.43;;;13.63;;
37855;SDS011;23694;43.274;26.924;2023-04-06T05:04:08;17.00;;;12.87;;
37855;SDS011;23694;43.274;26.924;2023-04-06T05:06:34;15.87;;;12.37;;
37855;SDS011;23694;43.274;26.924;2023-04-06T05:09:00;15.90;;;12.03;;
37855;SDS011;23694;43.274;26.924;2023-04-06T05:11:26;15.60;;;11.70;;
37855;SDS011;23694;43.274;26.924;2023-04-06T05:13:52;16.70;;;11.03;;
37855;SDS011;23694;43.274;26.924;2023-04-06T05:16:18;16.23;;;10.60;;
37855;SDS011;23694;43.274;26.924;2023-04-06T05:18:45;14.67;;;11.23;;
37855;SDS011;23694;43.274;26.924;2023-04-06T05:21:11;18.77;;;12.83;;
37855;SDS011;23694;43.274;26.924;2023-04-06T05:23:37;14.20;;;10.97;;
37855;SDS011;23694;43.274;26.924;2023-04-06T05:26:03;16.10;;;11.83;;
37855;SDS011;23694;43.274;26.924;2023-04-06T05:28:30;14.33;;;10.93;;
37855;SDS011;23694;43.274;26.924;2023-04-06T05:30:56;14.20;;;9.73;;
37855;SDS011;23694;43.274;26.924;2023-04-06T05:33:22;14.73;;;10.13;;
37855;SDS011;23694;43.274;26.924;2023-04-06T05:35:49;15.73;;;10.47;;
37855;SDS011;23694;43.274;26.924;2023-04-06T05:38:15;15.23;;;10.40;;
37855;SDS011;23694;43.274;26.924;2023-04-06T05:40:41;15.00;;;11.53;;
37855;SDS011;23694;43.274;26.924;2023-04-06T05:43:08;15.07;;;11.40;;
37855;SDS011;23694;43.274;26.924;2023-04-06T05:45:34;16.87;;;11.00;;
37855;SDS011;23694;43.274;26.924;2023-04-06T05:48:01;17.23;;;11.53;;
37855;SDS011;23694;43.274;26.924;2023-04-06T05:50:28;16.10;;;11.43;;
37855;SDS011;23694;43.274;26.924;2023-04-06T05:52:54;15.90;;;11.43;;
37855;SDS011;23694;43.274;26.924;2023-04-06T05:55:20;24.00;;;14.23;;
37855;SDS011;23694;43.274;26.924;2023-04-06T05:57:46;26.47;;;16.93;;
37855;SDS011;23694;43.274;26.924;2023-04-06T06:00:12;15.07;;;11.57;;
37855;SDS011;23694;43.274;26.924;2023-04-06T06:02:40;14.80;;;10.70;;
37855;SDS011;23694;43.274;26.924;2023-04-06T06:05:08;12.70;;;9.63;;
37855;SDS011;23694;43.274;26.924;2023-04-06T06:07:35;14.97;;;11.07;;
37855;SDS011;23694;43.274;26.924;2023-04-06T06:10:01;13.60;;;9.47;;
37855;SDS011;23694;43.274;26.924;2023-04-06T06:12:27;11.80;;;9.23;;
37855;SDS011;23694;43.274;26.924;2023-04-06T06:14:54;12.67;;;9.50;;
37855;SDS011;23694;43.274;26.924;2023-04-06T06:17:20;15.43;;;10.87;;
37855;SDS011;23694;43.274;26.924;2023-04-06T06:19:47;13.47;;;9.47;;
37855;SDS011;23694;43.274;26.924;2023-04-06T06:22:13;15.00;;;9.60;;
37855;SDS011;23694;43.274;26.924;2023-04-06T06:24:39;16.10;;;10.57;;
37855;SDS011;23694;43.274;26.924;2023-04-06T06:27:05;11.93;;;9.60;;
37855;SDS011;23694;43.274;26.924;2023-04-06T06:29:33;14.53;;;10.83;;
37855;SDS011;23694;43.274;26.924;2023-04-06T06:31:59;13.77;;;10.03;;
37855;SDS011;23694;43.274;26.924;2023-04-06T06:34:25;13.57;;;9.70;;
37855;SDS011;23694;43.274;26.924;2023-04-06T06:36:51;15.17;;;11.30;;
37855;SDS011;23694;43.274;26.924;2023-04-06T06:39:20;16.87;;;11.60;;
37855;SDS011;23694;43.274;26.924;2023-04-06T06:41:46;16.93;;;12.30;;
37855;SDS011;23694;43.274;26.924;2023-04-06T06:44:12;21.07;;;13.20;;
37855;SDS011;23694;43.274;26.924;2023-04-06T06:46:38;15.40;;;11.57;;
37855;SDS011;23694;43.274;26.924;2023-04-06T06:49:05;16.00;;;10.83;;
37855;SDS011;23694;43.274;26.924;2023-04-06T06:51:31;16.67;;;12.07;;
37855;SDS011;23694;43.274;26.924;2023-04-06T06:53:57;16.47;;;12.77;;
37855;SDS011;23694;43.274;26.924;2023-04-06T06:56:23;16.80;;;12.17;;
37855;SDS011;23694;43.274;26.924;2023-04-06T06:58:49;15.93;;;12.07;;
37855;SDS011;23694;43.274;26.924;2023-04-06T07:01:15;15.40;;;11.83;;
37855;SDS011;23694;43.274;26.924;2023-04-06T07:03:41;16.17;;;11.40;;
37855;SDS011;23694;43.274;26.924;2023-04-06T07:06:07;15.67;;;12.00;;
37855;SDS011;23694;43.274;26.924;2023-04-06T07:08:33;13.33;;;10.83;;
37855;SDS011;23694;43.274;26.924;2023-04-06T07:11:00;15.67;;;11.40;;
37855;SDS011;23694;43.274;26.924;2023-04-06T07:13:26;14.43;;;11.03;;
37855;SDS011;23694;43.274;26.924;2023-04-06T07:15:53;16.33;;;12.17;;
37855;SDS011;23694;43.274;26.924;2023-04-06T07:18:19;18.93;;;12.63;;
37855;SDS011;23694;43.274;26.924;2023-04-06T07:20:46;21.63;;;14.60;;
37855;SDS011;23694;43.274;26.924;2023-04-06T07:23:12;22.53;;;15.23;;
37855;SDS011;23694;43.274;26.924;2023-04-06T07:25:38;18.23;;;13.43;;
37855;SDS011;23694;43.274;26.924;2023-04-06T07:28:04;17.70;;;12.67;;
37855;SDS011;23694;43.274;26.924;2023-04-06T07:30:30;16.47;;;12.90;;
37855;SDS011;23694;43.274;26.924;2023-04-06T07:32:57;18.67;;;12.87;;
37855;SDS011;23694;43.274;26.924;2023-04-06T07:35:25;20.10;;;13.17;;
37855;SDS011;23694;43.274;26.924;2023-04-06T07:37:52;18.60;;;13.10;;
37855;SDS011;23694;43.274;26.924;2023-04-06T07:40:19;16.80;;;12.17;;
37855;SDS011;23694;43.274;26.924;2023-04-06T07:42:45;19.63;;;14.00;;
37855;SDS011;23694;43.274;26.924;2023-04-06T07:45:11;19.27;;;13.87;;
37855;SDS011;23694;43.274;26.924;2023-04-06T07:47:37;19.20;;;13.60;;
37855;SDS011;23694;43.274;26.924;2023-04-06T07:50:04;19.83;;;14.30;;
37855;SDS011;23694;43.274;26.924;2023-04-06T07:52:31;18.03;;;12.70;;
37855;SDS011;23694;43.274;26.924;2023-04-06T07:54:58;19.10;;;12.40;;
37855;SDS011;23694;43.274;26.924;2023-04-06T07:57:25;15.73;;;11.40;;
37855;SDS011;23694;43.274;26.924;2023-04-06T07:59:51;15.30;;;12.33;;
37855;SDS011;23694;43.274;26.924;2023-04-06T08:02:17;14.00;;;11.90;;
37855;SDS011;23694;43.274;26.924;2023-04-06T08:04:44;18.57;;;13.07;;
37855;SDS011;23694;43.274;26.924;2023-04-06T08:07:10;16.37;;;12.47;;
37855;SDS011;23694;43.274;26.924;2023-04-06T08:09:36;19.00;;;12.60;;
37855;SDS011;23694;43.274;26.924;2023-04-06T08:12:02;19.90;;;13.93;;
37855;SDS011;23694;43.274;26.924;2023-04-06T08:14:28;18.17;;;13.10;;
37855;SDS011;23694;43.274;26.924;2023-04-06T08:16:55;19.20;;;13.63;;
37855;SDS011;23694;43.274;26.924;2023-04-06T08:19:21;18.17;;;12.07;;
37855;SDS011;23694;43.274;26.924;2023-04-06T08:21:47;15.73;;;12.30;;
37855;SDS011;23694;43.274;26.924;2023-04-06T08:24:14;17.90;;;13.00;;
37855;SDS011;23694;43.274;26.924;2023-04-06T08:26:40;17.70;;;13.07;;
37855;SDS011;23694;43.274;26.924;2023-04-06T08:29:06;16.37;;;13.10;;
37855;SDS011;23694;43.274;26.924;2023-04-06T08:31:33;17.87;;;13.17;;
37855;SDS011;23694;43.274;26.924;2023-04-06T08:34:00;16.40;;;12.33;;
37855;SDS011;23694;43.274;26.924;2023-04-06T08:36:26;15.40;;;11.13;;
37855;SDS011;23694;43.274;26.924;2023-04-06T08:38:52;15.40;;;11.67;;
37855;SDS011;23694;43.274;26.924;2023-04-06T08:41:19;15.87;;;11.60;;
37855;SDS011;23694;43.274;26.924;2023-04-06T08:43:49;15.77;;;11.60;;
37855;SDS011;23694;43.274;26.924;2023-04-06T08:46:22;17.03;;;11.47;;
37855;SDS011;23694;43.274;26.924;2023-04-06T08:48:54;21.30;;;12.43;;
37855;SDS011;23694;43.274;26.924;2023-04-06T08:51:22;15.97;;;12.40;;
37855;SDS011;23694;43.274;26.924;2023-04-06T08:53:49;17.70;;;12.27;;
37855;SDS011;23694;43.274;26.924;2023-04-06T08:56:15;18.03;;;12.80;;
37855;SDS011;23694;43.274;26.924;2023-04-06T08:58:42;20.20;;;13.37;;
37855;SDS011;23694;43.274;26.924;2023-04-06T09:01:10;16.33;;;11.87;;
37855;SDS011;23694;43.274;26.924;2023-04-06T09:03:39;15.80;;;12.07;;
37855;SDS011;23694;43.274;26.924;2023-04-06T09:06:06;17.33;;;12.13;;
37855;SDS011;23694;43.274;26.924;2023-04-06T09:08:39;18.20;;;12.47;;
37855;SDS011;23694;43.274;26.924;2023-04-06T09:11:06;16.33;;;11.87;;
37855;SDS011;23694;43.274;26.924;2023-04-06T09:13:46;19.00;;;11.90;;
37855;SDS011;23694;43.274;26.924;2023-04-06T09:16:15;16.85;;;12.05;;
37855;SDS011;23694;43.274;26.924;2023-04-06T09:18:42;16.67;;;12.80;;
37855;SDS011;23694;43.274;26.924;2023-04-06T09:21:09;18.20;;;12.40;;
37855;SDS011;23694;43.274;26.924;2023-04-06T09:23:35;16.63;;;12.60;;
37855;SDS011;23694;43.274;26.924;2023-04-06T09:26:11;16.93;;;12.87;;
37855;SDS011;23694;43.274;26.924;2023-04-06T09:28:43;17.13;;;12.17;;
37855;SDS011;23694;43.274;26.924;2023-04-06T09:31:20;20.30;;;15.87;;
37855;SDS011;23694;43.274;26.924;2023-04-06T09:33:48;20.13;;;12.68;;
37855;SDS011;23694;43.274;26.924;2023-04-06T09:36:14;19.67;;;13.13;;
37855;SDS011;23694;43.274;26.924;2023-04-06T09:38:56;16.23;;;12.20;;
37855;SDS011;23694;43.274;26.924;2023-04-06T09:44:06;24.87;;;14.40;;
37855;SDS011;23694;43.274;26.924;2023-04-06T09:46:43;18.57;;;13.70;;
37855;SDS011;23694;43.274;26.924;2023-04-06T09:49:11;19.97;;;12.93;;
37855;SDS011;23694;43.274;26.924;2023-04-06T09:51:39;15.70;;;12.07;;
37855;SDS011;23694;43.274;26.924;2023-04-06T09:54:07;18.47;;;12.50;;
37855;SDS011;23694;43.274;26.924;2023-04-06T09:56:42;18.70;;;12.07;;
37855;SDS011;23694;43.274;26.924;2023-04-06T09:59:18;19.87;;;12.27;;
37855;SDS011;23694;43.274;26.924;2023-04-06T10:01:52;21.80;;;12.03;;
37855;SDS011;23694;43.274;26.924;2023-04-06T10:04:27;21.03;;;12.57;;
37855;SDS011;23694;43.274;26.924;2023-04-06T10:06:55;17.60;;;12.80;;
37855;SDS011;23694;43.274;26.924;2023-04-06T10:09:23;16.30;;;11.90;;
37855;SDS011;23694;43.274;26.924;2023-04-06T10:11:53;16.50;;;11.60;;
37855;SDS011;23694;43.274;26.924;2023-04-06T10:14:20;17.73;;;12.50;;
37855;SDS011;23694;43.274;26.924;2023-04-06T10:16:48;18.97;;;13.20;;
37855;SDS011;23694;43.274;26.924;2023-04-06T10:19:25;13.43;;;11.37;;
37855;SDS011;23694;43.274;26.924;2023-04-06T10:21:57;15.73;;;11.57;;
37855;SDS011;23694;43.274;26.924;2023-04-06T10:24:28;14.40;;;11.87;;
37855;SDS011;23694;43.274;26.924;2023-04-06T10:26:58;16.60;;;12.23;;
37855;SDS011;23694;43.274;26.924;2023-04-06T10:29:27;14.23;;;12.13;;
37855;SDS011;23694;43.274;26.924;2023-04-06T10:31:53;17.27;;;12.60;;
37855;SDS011;23694;43.274;26.924;2023-04-06T10:34:20;16.80;;;11.20;;
37855;SDS011;23694;43.274;26.924;2023-04-06T10:36:47;15.23;;;11.33;;
37855;SDS011;23694;43.274;26.924;2023-04-06T10:39:13;22.67;;;13.73;;
37855;SDS011;23694;43.274;26.924;2023-04-06T10:41:43;18.17;;;13.30;;
37855;SDS011;23694;43.274;26.924;2023-04-06T10:44:23;17.93;;;12.70;;
37855;SDS011;23694;43.274;26.924;2023-04-06T10:46:53;17.93;;;11.77;;
37855;SDS011;23694;43.274;26.924;2023-04-06T10:49:21;17.98;;;11.93;;
37855;SDS011;23694;43.274;26.924;2023-04-06T10:51:51;16.53;;;11.57;;
37855;SDS011;23694;43.274;26.924;2023-04-06T10:54:20;15.23;;;11.68;;
37855;SDS011;23694;43.274;26.924;2023-04-06T10:56:48;16.73;;;10.60;;
37855;SDS011;23694;43.274;26.924;2023-04-06T10:59:18;13.90;;;11.00;;
37855;SDS011;23694;43.274;26.924;2023-04-06T11:01:44;14.17;;;11.37;;
37855;SDS011;23694;43.274;26.924;2023-04-06T11:04:15;14.20;;;10.70;;
37855;SDS011;23694;43.274;26.924;2023-04-06T11:06:46;14.53;;;10.87;;
37855;SDS011;23694;43.274;26.924;2023-04-06T11:09:27;14.53;;;11.27;;
37855;SDS011;23694;43.274;26.924;2023-04-06T11:11:54;14.17;;;10.70;;
37855;SDS011;23694;43.274;26.924;2023-04-06T11:14:22;14.53;;;11.50;;
37855;SDS011;23694;43.274;26.924;2023-04-06T11:16:48;13.63;;;10.47;;
37855;SDS011;23694;43.274;26.924;2023-04-06T11:19:16;15.03;;;10.53;;
37855;SDS011;23694;43.274;26.924;2023-04-06T11:21:43;12.17;;;9.60;;
37855;SDS011;23694;43.274;26.924;2023-04-06T11:26:44;13.27;;;10.53;;
37855;SDS011;23694;43.274;26.924;2023-04-06T11:29:11;16.20;;;11.20;;
37855;SDS011;23694;43.274;26.924;2023-04-06T11:31:42;14.73;;;10.70;;
37855;SDS011;23694;43.274;26.924;2023-04-06T11:34:12;13.67;;;10.57;;
37855;SDS011;23694;43.274;26.924;2023-04-06T11:36:41;13.60;;;10.27;;
37855;SDS011;23694;43.274;26.924;2023-04-06T11:39:09;14.00;;;10.27;;
37855;SDS011;23694;43.274;26.924;2023-04-06T11:41:35;18.40;;;11.03;;
37855;SDS011;23694;43.274;26.924;2023-04-06T11:44:02;13.20;;;9.50;;
37855;SDS011;23694;43.274;26.924;2023-04-06T11:46:28;14.43;;;11.00;;
37855;SDS011;23694;43.274;26.924;2023-04-06T11:48:58;19.93;;;10.07;;
37855;SDS011;23694;43.274;26.924;2023-04-06T11:51:26;17.33;;;13.23;;
37855;SDS011;23694;43.274;26.924;2023-04-06T11:53:52;16.77;;;12.03;;
37855;SDS011;23694;43.274;26.924;2023-04-06T11:56:25;11.70;;;9.47;;
37855;SDS011;23694;43.274;26.924;2023-04-06T11:58:57;14.10;;;10.57;;
37855;SDS011;23694;43.274;26.924;2023-04-06T12:01:25;16.27;;;11.73;;
37855;SDS011;23694;43.274;26.924;2023-04-06T12:03:52;15.23;;;11.70;;
37855;SDS011;23694;43.274;26.924;2023-04-06T12:06:18;17.53;;;11.07;;
37855;SDS011;23694;43.274;26.924;2023-04-06T12:08:45;15.77;;;11.57;;
37855;SDS011;23694;43.274;26.924;2023-04-06T12:11:11;15.43;;;10.63;;
37855;SDS011;23694;43.274;26.924;2023-04-06T12:13:37;16.03;;;10.80;;
37855;SDS011;23694;43.274;26.924;2023-04-06T12:16:04;14.03;;;10.03;;
37855;SDS011;23694;43.274;26.924;2023-04-06T12:18:31;14.20;;;9.30;;
37855;SDS011;23694;43.274;26.924;2023-04-06T12:20:57;17.43;;;11.70;;
37855;SDS011;23694;43.274;26.924;2023-04-06T12:23:23;16.20;;;11.97;;
37855;SDS011;23694;43.274;26.924;2023-04-06T12:25:49;18.37;;;13.00;;
37855;SDS011;23694;43.274;26.924;2023-04-06T12:28:16;27.13;;;15.30;;
37855;SDS011;23694;43.274;26.924;2023-04-06T12:30:42;23.43;;;14.43;;
37855;SDS011;23694;43.274;26.924;2023-04-06T12:33:08;14.77;;;10.33;;
37855;SDS011;23694;43.274;26.924;2023-04-06T12:35:34;19.67;;;11.43;;
37855;SDS011;23694;43.274;26.924;2023-04-06T12:38:01;20.23;;;12.63;;
37855;SDS011;23694;43.274;26.924;2023-04-06T12:40:27;31.13;;;16.90;;
37855;SDS011;23694;43.274;26.924;2023-04-06T12:42:53;14.43;;;10.10;;
37855;SDS011;23694;43.274;26.924;2023-04-06T12:45:19;11.53;;;8.63;;
37855;SDS011;23694;43.274;26.924;2023-04-06T12:47:45;13.60;;;9.63;;
37855;SDS011;23694;43.274;26.924;2023-04-06T12:50:11;11.43;;;8.27;;
37855;SDS011;23694;43.274;26.924;2023-04-06T12:52:37;11.90;;;9.07;;
37855;SDS011;23694;43.274;26.924;2023-04-06T12:55:03;12.13;;;8.27;;
37855;SDS011;23694;43.274;26.924;2023-04-06T12:57:30;15.27;;;9.57;;
37855;SDS011;23694;43.274;26.924;2023-04-06T12:59:56;13.50;;;9.20;;
37855;SDS011;23694;43.274;26.924;2023-04-06T13:02:23;10.93;;;7.97;;
37855;SDS011;23694;43.274;26.924;2023-04-06T13:04:49;10.97;;;8.73;;
37855;SDS011;23694;43.274;26.924;2023-04-06T13:07:15;10.97;;;8.40;;
37855;SDS011;23694;43.274;26.924;2023-04-06T13:09:42;11.13;;;8.20;;
37855;SDS011;23694;43.274;26.924;2023-04-06T13:12:08;9.80;;;7.33;;
37855;SDS011;23694;43.274;26.924;2023-04-06T13:14:34;13.83;;;9.43;;
37855;SDS011;23694;43.274;26.924;2023-04-06T13:17:00;13.10;;;9.53;;
37855;SDS011;23694;43.274;26.924;2023-04-06T13:19:26;12.90;;;8.40;;
37855;SDS011;23694;43.274;26.924;2023-04-06T13:21:52;13.63;;;8.53;;
37855;SDS011;23694;43.274;26.924;2023-04-06T13:24:18;12.07;;;7.37;;
37855;SDS011;23694;43.274;26.924;2023-04-06T13:26:45;11.90;;;8.47;;
37855;SDS011;23694;43.274;26.924;2023-04-06T13:29:11;16.13;;;11.63;;
37855;SDS011;23694;43.274;26.924;2023-04-06T13:31:37;16.80;;;10.47;;
37855;SDS011;23694;43.274;26.924;2023-04-06T13:34:04;9.97;;;7.47;;
37855;SDS011;23694;43.274;26.924;2023-04-06T13:36:30;9.63;;;7.30;;
37855;SDS011;23694;43.274;26.924;2023-04-06T13:39:00;8.53;;;7.03;;
37855;SDS011;23694;43.274;26.924;2023-04-06T13:41:26;11.17;;;7.40;;
37855;SDS011;23694;43.274;26.924;2023-04-06T13:43:52;13.47;;;8.10;;
37855;SDS011;23694;43.274;26.924;2023-04-06T13:46:18;14.00;;;7.70;;
37855;SDS011;23694;43.274;26.924;2023-04-06T13:48:44;12.97;;;8.13;;
37855;SDS011;23694;43.274;26.924;2023-04-06T13:51:11;9.47;;;6.40;;
37855;SDS011;23694;43.274;26.924;2023-04-06T13:53:38;8.00;;;6.13;;
37855;SDS011;23694;43.274;26.924;2023-04-06T13:56:05;8.03;;;5.83;;
37855;SDS011;23694;43.274;26.924;2023-04-06T13:58:32;12.97;;;6.20;;
37855;SDS011;23694;43.274;26.924;2023-04-06T14:01:08;11.43;;;7.93;;
37855;SDS011;23694;43.274;26.924;2023-04-06T14:03:35;8.63;;;6.00;;
37855;SDS011;23694;43.274;26.924;2023-04-06T14:06:09;12.03;;;7.50;;
37855;SDS011;23694;43.274;26.924;2023-04-06T14:08:36;12.87;;;7.23;;
37855;SDS011;23694;43.274;26.924;2023-04-06T14:11:02;11.03;;;6.73;;
37855;SDS011;23694;43.274;26.924;2023-04-06T14:13:28;12.40;;;7.43;;
37855;SDS011;23694;43.274;26.924;2023-04-06T14:15:54;26.97;;;16.10;;